Time;durP1;ratioP1;P1;durP2;ratioP2;P2;SDS_P1;SDS_P2;PMS_P1;PMS_P2;Temp;Humidity;BMP_temperature;BMP_pressure;BME280_temperature;BME280_humidity;BME280_pressure;Samples;Min_cycle;Max_cycle;Signal;HPM_P1;HPM_P2
2023/06/23 00:00:32;;;;;;;1.65;1.55;;;24.40;61.20;;;;;;899895;155;27424;-74
2023/06/23 00:02:58;;;;;;;2.12;1.57;;;24.40;61.40;;;;;;898024;155;27359;-74
2023/06/23 00:05:27;;;;;;;2.10;2.00;;;24.30;61.40;;;;;;898189;155;27374;-74
2023/06/23 00:07:52;;;;;;;2.77;2.05;;;24.30;61.50;;;;;;896954;155;27409;-74
2023/06/23 00:10:19;;;;;;;2.40;2.20;;;24.20;61.50;;;;;;899509;155;27371;-74
2023/06/23 00:12:45;;;;;;;2.92;2.20;;;24.20;61.60;;;;;;898709;155;27304;-74
2023/06/23 00:15:14;;;;;;;2.55;2.35;;;24.10;61.50;;;;;;899708;154;27409;-73
2023/06/23 00:17:41;;;;;;;2.40;2.17;;;24.10;61.50;;;;;;898374;157;27592;-74
2023/06/23 00:20:10;;;;;;;2.80;2.60;;;24.00;61.60;;;;;;898465;155;27534;-74
2023/06/23 00:22:34;;;;;;;2.33;2.12;;;24.00;61.70;;;;;;898494;155;27353;-74
2023/06/23 00:25:00;;;;;;;2.62;2.47;;;23.90;61.80;;;;;;899932;155;27506;-74
2023/06/23 00:27:27;;;;;;;2.37;2.17;;;23.90;61.90;;;;;;898983;155;27505;-74
2023/06/23 00:29:54;;;;;;;2.70;2.50;;;23.80;62.00;;;;;;898999;155;27340;-74
2023/06/23 00:32:20;;;;;;;2.95;2.75;;;23.80;62.10;;;;;;898387;154;27432;-74
2023/06/23 00:34:47;;;;;;;2.65;2.45;;;23.80;62.30;;;;;;899080;155;27423;-74
2023/06/23 00:37:14;;;;;;;2.92;2.72;;;23.70;62.30;;;;;;899563;155;27424;-74
2023/06/23 00:39:41;;;;;;;2.95;2.70;;;23.70;62.40;;;;;;898544;155;27556;-73
2023/06/23 00:42:06;;;;;;;3.27;2.98;;;23.70;62.50;;;;;;900893;155;27448;-74
2023/06/23 00:44:33;;;;;;;2.92;2.62;;;23.60;62.50;;;;;;898022;155;27384;-74
2023/06/23 00:47:02;;;;;;;3.40;2.55;;;23.60;62.60;;;;;;899792;155;27334;-74
2023/06/23 00:49:29;;;;;;;2.90;2.60;;;23.60;62.60;;;;;;898119;155;27437;-74
2023/06/23 00:51:56;;;;;;;4.60;2.92;;;23.50;62.60;;;;;;899426;155;27404;-74
2023/06/23 00:54:25;;;;;;;2.45;2.25;;;23.50;62.70;;;;;;898738;155;27363;-74
2023/06/23 00:56:49;;;;;;;2.50;2.30;;;23.50;62.70;;;;;;897239;155;27487;-74
2023/06/23 00:59:15;;;;;;;2.55;2.35;;;23.50;62.80;;;;;;897095;155;27414;-74
2023/06/23 01:01:42;;;;;;;2.67;2.47;;;23.40;62.70;;;;;;899868;155;27363;-74
2023/06/23 01:04:09;;;;;;;2.47;2.27;;;23.40;62.80;;;;;;898033;157;27413;-74
2023/06/23 01:06:38;;;;;;;2.60;2.40;;;23.40;62.60;;;;;;898350;155;27476;-74
2023/06/23 01:09:07;;;;;;;2.00;1.90;;;23.40;62.50;;;;;;898177;154;27382;-74
2023/06/23 01:11:41;;;;;;;2.45;2.17;;;23.30;62.50;;;;;;900183;155;27407;-74
2023/06/23 01:14:03;;;;;;;2.45;2.25;;;23.30;62.40;;;;;;899067;155;27371;-74
2023/06/23 01:16:30;;;;;;;3.72;2.70;;;23.30;62.40;;;;;;900487;155;27419;-74
2023/06/23 01:18:59;;;;;;;2.45;2.15;;;23.20;62.40;;;;;;897548;155;27396;-73
2023/06/23 01:21:28;;;;;;;3.08;2.12;;;23.20;62.40;;;;;;897677;155;27410;-74
2023/06/23 01:24:10;;;;;;;3.47;2.67;;;23.20;62.30;;;;;;897356;155;27478;-74
2023/06/23 01:26:36;;;;;;;2.37;2.17;;;23.20;62.30;;;;;;897645;155;27417;-73
2023/06/23 01:29:03;;;;;;;2.50;2.30;;;23.20;62.20;;;;;;897742;155;27371;-73
2023/06/23 01:31:32;;;;;;;2.70;2.50;;;23.10;62.20;;;;;;899629;155;27867;-74
2023/06/23 01:33:57;;;;;;;3.17;2.98;;;23.10;62.20;;;;;;893523;155;27464;-74
2023/06/23 01:36:26;;;;;;;3.12;2.27;;;23.10;62.20;;;;;;898246;155;27413;-73
2023/06/23 01:38:52;;;;;;;2.92;2.62;;;23.10;62.30;;;;;;899348;155;27538;-74
2023/06/23 01:41:23;;;;;;;2.42;2.25;;;23.10;62.20;;;;;;900830;155;27482;-74
2023/06/23 01:43:48;;;;;;;2.42;2.22;;;23.00;62.10;;;;;;899032;155;27415;-74
2023/06/23 01:46:18;;;;;;;2.40;2.20;;;23.00;62.10;;;;;;899188;155;27431;-74
2023/06/23 01:48:44;;;;;;;2.65;2.45;;;23.00;62.20;;;;;;899449;157;27426;-74
2023/06/23 01:51:11;;;;;;;2.47;2.27;;;23.00;62.20;;;;;;896706;155;27478;-73
2023/06/23 01:53:37;;;;;;;2.40;2.20;;;23.00;62.30;;;;;;901509;155;27473;-74
2023/06/23 01:56:04;;;;;;;2.80;2.60;;;23.00;62.40;;;;;;899318;155;27419;-74
2023/06/23 01:58:30;;;;;;;2.75;2.55;;;23.00;62.40;;;;;;899942;155;27521;-74
2023/06/23 02:00:57;;;;;;;2.77;2.45;;;23.00;62.40;;;;;;900469;155;27357;-73
2023/06/23 02:03:23;;;;;;;2.72;2.55;;;23.00;62.50;;;;;;900441;155;27363;-74
2023/06/23 02:05:51;;;;;;;2.98;2.55;;;23.00;62.50;;;;;;897934;155;27390;-74
2023/06/23 02:08:17;;;;;;;2.70;2.20;;;23.00;62.60;;;;;;898375;155;27953;-74
2023/06/23 02:10:43;;;;;;;2.85;2.33;;;23.00;62.60;;;;;;898173;155;27463;-74
2023/06/23 02:13:11;;;;;;;2.85;2.58;;;22.90;62.60;;;;;;898372;155;27351;-73
2023/06/23 02:15:36;;;;;;;2.80;2.60;;;23.00;62.70;;;;;;898486;155;27529;-76
2023/06/23 02:18:03;;;;;;;2.30;2.15;;;23.00;62.70;;;;;;899180;156;27417;-71
2023/06/23 02:20:30;;;;;;;2.30;2.10;;;22.90;62.70;;;;;;899925;155;27399;-71
2023/06/23 02:22:56;;;;;;;2.65;2.45;;;23.00;62.70;;;;;;898912;155;27388;-72
2023/06/23 02:25:23;;;;;;;2.55;2.35;;;22.90;62.60;;;;;;900827;155;27362;-71
2023/06/23 02:27:49;;;;;;;2.52;2.33;;;23.00;62.70;;;;;;897821;155;27397;-72
2023/06/23 02:30:19;;;;;;;2.30;2.10;;;22.90;62.60;;;;;;897202;155;27411;-72
2023/06/23 02:32:45;;;;;;;4.12;2.40;;;22.90;62.70;;;;;;899930;155;27474;-71
2023/06/23 02:35:14;;;;;;;2.60;2.40;;;22.90;62.70;;;;;;898051;155;27428;-72
2023/06/23 02:37:41;;;;;;;2.60;2.40;;;22.90;62.70;;;;;;900442;155;27600;-71
2023/06/23 02:40:11;;;;;;;2.62;2.42;;;22.90;62.70;;;;;;898519;155;27506;-71
2023/06/23 02:42:37;;;;;;;2.67;2.47;;;22.90;62.70;;;;;;899231;155;27535;-71
2023/06/23 02:45:04;;;;;;;2.62;2.42;;;22.90;62.70;;;;;;897726;155;27390;-71
2023/06/23 02:47:30;;;;;;;2.70;2.50;;;22.90;61.90;;;;;;899615;155;27427;-72
2023/06/23 02:49:58;;;;;;;3.12;2.80;;;22.90;62.70;;;;;;899686;155;27371;-71
2023/06/23 02:52:23;;;;;;;3.10;2.83;;;22.90;62.70;;;;;;898783;155;27378;-71
2023/06/23 02:54:50;;;;;;;2.85;2.65;;;22.90;62.70;;;;;;898215;155;27466;-71
2023/06/23 02:57:17;;;;;;;3.10;2.80;;;22.80;62.60;;;;;;898146;155;27378;-71
2023/06/23 02:59:44;;;;;;;2.70;2.52;;;22.80;62.60;;;;;;897617;155;27415;-71
2023/06/23 03:02:10;;;;;;;3.33;2.58;;;22.90;62.70;;;;;;897655;154;27430;-72
2023/06/23 03:04:41;;;;;;;2.77;2.52;;;22.90;62.60;;;;;;898654;155;27324;-71
2023/06/23 03:07:06;;;;;;;2.67;2.47;;;22.90;62.60;;;;;;900105;155;27411;-71
2023/06/23 03:09:33;;;;;;;3.30;2.77;;;22.90;62.50;;;;;;899503;155;27959;-71
2023/06/23 03:11:59;;;;;;;2.80;2.60;;;22.90;62.50;;;;;;899335;155;27421;-71
2023/06/23 03:14:26;;;;;;;2.83;2.62;;;22.90;62.40;;;;;;898025;155;27391;-71
2023/06/23 03:16:53;;;;;;;2.95;2.75;;;22.90;62.40;;;;;;900298;155;27375;-72
2023/06/23 03:19:37;;;;;;;2.50;2.30;;;22.90;62.40;;;;;;899305;155;27406;-71
2023/06/23 03:22:12;;;;;;;3.60;2.72;;;22.90;62.40;;;;;;899447;155;27430;-71
2023/06/23 03:24:39;;;;;;;2.87;2.67;;;22.90;62.40;;;;;;898498;155;27336;-72
2023/06/23 03:27:08;;;;;;;3.05;2.58;;;22.90;62.40;;;;;;897773;155;27384;-71
2023/06/23 03:29:36;;;;;;;3.15;2.95;;;22.80;62.30;;;;;;901192;155;27409;-71
2023/06/23 03:32:04;;;;;;;3.87;2.77;;;22.90;62.40;;;;;;898994;155;27424;-72
2023/06/23 03:34:28;;;;;;;3.47;3.17;;;22.80;62.40;;;;;;898688;155;27464;-75
2023/06/23 03:36:56;;;;;;;3.20;2.75;;;22.80;62.40;;;;;;898937;155;27388;-75
2023/06/23 03:39:21;;;;;;;3.70;3.25;;;22.80;62.40;;;;;;899704;155;27365;-75
2023/06/23 03:41:48;;;;;;;3.10;2.90;;;22.80;62.40;;;;;;898305;155;27436;-75
2023/06/23 03:44:17;;;;;;;2.95;2.75;;;22.80;62.40;;;;;;897881;155;27381;-75
2023/06/23 03:46:54;;;;;;;2.92;2.72;;;22.80;62.50;;;;;;897210;155;27407;-75
2023/06/23 03:49:20;;;;;;;3.30;3.00;;;22.80;62.50;;;;;;900349;155;27367;-75
2023/06/23 03:51:46;;;;;;;4.62;2.87;;;22.80;62.50;;;;;;897712;155;28023;-75
2023/06/23 03:54:13;;;;;;;3.30;3.00;;;22.80;62.60;;;;;;897337;155;27749;-75
2023/06/23 03:56:39;;;;;;;3.27;2.98;;;22.80;62.50;;;;;;900221;155;27376;-75
2023/06/23 03:59:06;;;;;;;2.95;2.65;;;22.80;62.60;;;;;;897824;155;27383;-75
2023/06/23 04:01:33;;;;;;;3.10;2.90;;;22.80;62.70;;;;;;899113;155;27486;-75
2023/06/23 04:03:59;;;;;;;3.30;3.10;;;22.80;62.70;;;;;;899562;155;27423;-75
2023/06/23 04:06:26;;;;;;;3.12;2.83;;;22.80;62.60;;;;;;899954;155;27506;-75
2023/06/23 04:08:52;;;;;;;2.98;2.70;;;22.80;62.70;;;;;;896773;155;27383;-75
2023/06/23 04:11:19;;;;;;;2.98;2.77;;;22.80;62.60;;;;;;899001;155;27339;-75
2023/06/23 04:13:46;;;;;;;3.25;2.90;;;22.70;62.50;;;;;;898777;155;27836;-75
2023/06/23 04:16:12;;;;;;;2.80;2.60;;;22.70;62.60;;;;;;897827;155;27393;-75
2023/06/23 04:18:39;;;;;;;2.90;2.70;;;22.70;62.70;;;;;;899813;155;27459;-75
2023/06/23 04:21:05;;;;;;;2.87;2.67;;;22.70;62.70;;;;;;900688;155;27397;-75
2023/06/23 04:23:32;;;;;;;2.85;2.65;;;22.70;62.70;;;;;;898091;155;27855;-75
2023/06/23 04:25:58;;;;;;;3.67;2.80;;;22.70;62.70;;;;;;899377;155;27396;-75
2023/06/23 04:28:25;;;;;;;2.75;2.55;;;22.70;62.70;;;;;;896478;155;27391;-75
2023/06/23 04:30:52;;;;;;;3.85;2.90;;;22.70;62.70;;;;;;901115;155;27489;-75
2023/06/23 04:33:18;;;;;;;3.42;3.12;;;22.70;62.70;;;;;;898755;155;27414;-75
2023/06/23 04:35:46;;;;;;;3.20;2.87;;;22.70;62.70;;;;;;899094;155;27484;-75
2023/06/23 04:38:14;;;;;;;3.10;2.90;;;22.70;62.80;;;;;;899040;155;27491;-75
2023/06/23 04:40:43;;;;;;;3.05;2.85;;;22.70;62.80;;;;;;899451;155;27363;-75
2023/06/23 04:43:13;;;;;;;3.10;2.75;;;22.70;62.80;;;;;;899014;155;27479;-75
2023/06/23 04:45:48;;;;;;;3.02;2.83;;;22.70;62.80;;;;;;898403;155;27394;-75
2023/06/23 04:48:15;;;;;;;3.08;2.87;;;22.70;62.90;;;;;;898965;155;27505;-75
2023/06/23 04:50:42;;;;;;;3.60;3.30;;;22.70;62.90;;;;;;898034;155;27402;-75
2023/06/23 04:53:11;;;;;;;3.20;3.00;;;22.70;63.00;;;;;;896303;155;27427;-75
2023/06/23 04:55:38;;;;;;;3.20;3.00;;;22.70;63.10;;;;;;897527;155;27503;-75
2023/06/23 04:58:04;;;;;;;2.75;2.55;;;22.70;63.00;;;;;;899377;155;27412;-75
2023/06/23 05:00:31;;;;;;;3.50;3.20;;;22.70;63.10;;;;;;897836;155;27616;-75
2023/06/23 05:02:57;;;;;;;3.37;3.17;;;22.70;63.20;;;;;;898178;155;27398;-75
2023/06/23 05:05:24;;;;;;;3.35;3.05;;;22.70;63.20;;;;;;867312;161;27571;-75
2023/06/23 05:07:51;;;;;;;4.20;2.83;;;22.70;63.20;;;;;;899405;155;27388;-75
2023/06/23 05:10:17;;;;;;;3.80;3.50;;;22.70;63.30;;;;;;900769;155;27449;-75
2023/06/23 05:12:45;;;;;;;3.72;2.67;;;22.80;63.20;;;;;;899095;155;27286;-75
2023/06/23 05:15:10;;;;;;;3.12;2.92;;;22.80;63.20;;;;;;896446;155;27493;-75
2023/06/23 05:17:37;;;;;;;2.55;2.40;;;22.80;63.10;;;;;;898282;155;27375;-75
2023/06/23 05:20:04;;;;;;;2.30;2.20;;;22.80;63.10;;;;;;899501;155;27474;-75
2023/06/23 05:22:30;;;;;;;2.95;2.75;;;22.80;63.90;;;;;;900501;155;27295;-75
2023/06/23 05:24:59;;;;;;;2.92;2.72;;;22.80;63.10;;;;;;898447;155;27397;-75
2023/06/23 05:27:23;;;;;;;3.27;3.08;;;22.80;63.10;;;;;;897574;155;27442;-75
2023/06/23 05:29:50;;;;;;;2.70;2.50;;;22.80;63.10;;;;;;898707;155;27338;-75
2023/06/23 05:32:17;;;;;;;2.92;2.72;;;22.80;63.10;;;;;;897869;155;27464;-75
2023/06/23 05:34:43;;;;;;;3.08;2.70;;;22.70;63.10;;;;;;897881;155;27818;-75
2023/06/23 05:37:10;;;;;;;3.08;2.80;;;22.70;63.10;;;;;;898251;155;27403;-75
2023/06/23 05:39:36;;;;;;;2.90;2.70;;;22.70;63.20;;;;;;899075;155;27931;-75
2023/06/23 05:42:03;;;;;;;2.83;2.40;;;22.70;63.10;;;;;;898206;155;27494;-75
2023/06/23 05:44:29;;;;;;;2.60;2.40;;;22.70;63.20;;;;;;899749;155;27467;-75
2023/06/23 05:46:56;;;;;;;3.12;2.83;;;22.70;63.10;;;;;;899633;155;27384;-75
2023/06/23 05:49:23;;;;;;;2.80;2.60;;;22.70;63.10;;;;;;899272;155;27402;-75
2023/06/23 05:51:49;;;;;;;2.95;2.75;;;22.60;63.10;;;;;;899499;155;27455;-75
2023/06/23 05:54:16;;;;;;;3.05;2.70;;;22.60;63.20;;;;;;899029;155;27383;-75
2023/06/23 05:56:45;;;;;;;3.25;2.70;;;22.60;63.20;;;;;;898079;155;27327;-76
2023/06/23 05:59:20;;;;;;;2.65;2.47;;;22.60;63.20;;;;;;897398;155;27484;-76
2023/06/23 06:01:47;;;;;;;3.10;2.90;;;22.60;63.30;;;;;;901199;155;27460;-76
2023/06/23 06:04:14;;;;;;;2.70;2.37;;;22.60;63.30;;;;;;900116;155;27568;-76
2023/06/23 06:06:40;;;;;;;2.65;2.45;;;22.60;63.30;;;;;;901454;155;27409;-76
2023/06/23 06:09:07;;;;;;;3.02;2.70;;;22.60;63.30;;;;;;897571;155;27524;-76
2023/06/23 06:11:33;;;;;;;2.90;2.70;;;22.60;63.30;;;;;;898976;155;27462;-76
2023/06/23 06:14:00;;;;;;;3.20;2.90;;;22.60;63.30;;;;;;896925;155;27398;-76
2023/06/23 06:16:27;;;;;;;2.98;2.77;;;22.60;63.30;;;;;;897238;155;27474;-75
2023/06/23 06:18:53;;;;;;;2.98;2.77;;;22.60;63.30;;;;;;897788;155;27490;-76
2023/06/23 06:21:20;;;;;;;2.90;2.70;;;22.60;63.40;;;;;;900196;155;27388;-75
2023/06/23 06:23:46;;;;;;;3.12;2.92;;;22.50;63.30;;;;;;898110;155;27469;-76
2023/06/23 06:26:13;;;;;;;3.22;2.95;;;22.60;63.40;;;;;;899162;155;27414;-76
2023/06/23 06:28:39;;;;;;;4.58;3.40;;;22.60;63.50;;;;;;898559;155;27408;-76
2023/06/23 06:31:06;;;;;;;3.33;3.02;;;22.60;63.50;;;;;;898392;155;27506;-76
2023/06/23 06:33:33;;;;;;;3.08;2.87;;;22.60;63.50;;;;;;898474;155;27474;-76
2023/06/23 06:36:03;;;;;;;4.12;3.00;;;22.60;63.50;;;;;;898115;155;27346;-75
2023/06/23 06:38:26;;;;;;;3.17;2.98;;;22.60;63.50;;;;;;897949;155;27388;-76
2023/06/23 06:40:54;;;;;;;3.50;3.20;;;22.60;63.50;;;;;;899882;155;27431;-75
2023/06/23 06:43:19;;;;;;;3.08;2.87;;;22.60;63.50;;;;;;900100;155;27347;-75
2023/06/23 06:45:46;;;;;;;3.05;2.85;;;22.60;63.40;;;;;;901796;154;27389;-76
2023/06/23 06:48:12;;;;;;;3.40;3.10;;;22.60;63.30;;;;;;901825;155;27440;-75
2023/06/23 06:50:39;;;;;;;3.17;2.98;;;22.60;63.30;;;;;;900376;155;27448;-76
2023/06/23 06:53:05;;;;;;;3.02;2.80;;;22.70;63.30;;;;;;898512;155;27423;-75
2023/06/23 06:55:32;;;;;;;2.72;2.52;;;22.70;63.20;;;;;;898641;155;27398;-75
2023/06/23 06:57:59;;;;;;;2.90;2.62;;;22.70;63.10;;;;;;897627;155;27341;-75
2023/06/23 07:00:25;;;;;;;5.33;2.95;;;22.70;63.00;;;;;;900830;155;29340;-75
2023/06/23 07:02:52;;;;;;;2.90;2.70;;;22.80;63.10;;;;;;899614;155;27483;-75
2023/06/23 07:05:19;;;;;;;3.02;2.77;;;22.80;62.90;;;;;;897587;155;27465;-75
2023/06/23 07:07:45;;;;;;;2.72;2.52;;;22.80;62.80;;;;;;898703;156;27392;-75
2023/06/23 07:10:11;;;;;;;3.05;2.58;;;22.80;62.70;;;;;;899558;155;27368;-75
2023/06/23 07:12:39;;;;;;;3.27;2.98;;;22.90;62.80;;;;;;899733;155;27428;-75
2023/06/23 07:15:07;;;;;;;2.87;2.67;;;22.90;62.80;;;;;;900194;155;27527;-75
2023/06/23 07:17:31;;;;;;;2.87;2.67;;;22.90;62.80;;;;;;899386;155;27326;-75
2023/06/23 07:19:58;;;;;;;3.27;3.08;;;22.90;62.80;;;;;;900477;155;27367;-75
2023/06/23 07:22:25;;;;;;;3.50;3.20;;;22.90;62.70;;;;;;900089;155;27376;-75
2023/06/23 07:24:51;;;;;;;3.75;3.45;;;23.00;62.70;;;;;;897924;155;27517;-75
2023/06/23 07:27:18;;;;;;;3.30;3.00;;;23.00;62.70;;;;;;898865;155;27482;-75
2023/06/23 07:29:44;;;;;;;3.50;3.30;;;23.10;62.70;;;;;;901023;155;27370;-75
2023/06/23 07:32:11;;;;;;;3.40;3.10;;;23.10;62.70;;;;;;897825;155;27369;-75
2023/06/23 07:34:37;;;;;;;3.33;2.95;;;23.20;63.00;;;;;;898111;155;27456;-75
2023/06/23 07:37:04;;;;;;;3.67;3.37;;;23.30;62.80;;;;;;898655;155;27520;-76
2023/06/23 07:39:31;;;;;;;3.20;2.90;;;23.40;62.80;;;;;;899159;158;27390;-75
2023/06/23 07:41:57;;;;;;;3.27;2.98;;;23.60;62.90;;;;;;900044;155;27323;-75
2023/06/23 07:44:24;;;;;;;4.35;2.77;;;23.70;62.50;;;;;;899315;155;27358;-75
2023/06/23 07:46:50;;;;;;;3.05;2.80;;;23.80;62.00;;;;;;897707;155;27405;-75
2023/06/23 07:49:17;;;;;;;2.92;2.72;;;23.90;61.50;;;;;;899120;156;27491;-75
2023/06/23 07:51:44;;;;;;;3.83;3.52;;;24.00;61.20;;;;;;898070;155;27531;-75
2023/06/23 07:54:10;;;;;;;3.20;2.92;;;24.10;60.90;;;;;;899285;155;27362;-75
2023/06/23 07:56:37;;;;;;;3.12;2.92;;;24.10;60.60;;;;;;897516;155;27403;-75
2023/06/23 07:59:03;;;;;;;3.20;2.85;;;24.10;60.40;;;;;;898993;155;27425;-75
2023/06/23 08:01:30;;;;;;;2.92;2.72;;;24.10;60.20;;;;;;899568;155;27293;-75
2023/06/23 08:03:57;;;;;;;6.60;3.17;;;24.10;60.00;;;;;;898245;155;27344;-75
2023/06/23 08:06:26;;;;;;;3.37;3.10;;;24.10;60.00;;;;;;898503;155;27428;-75
2023/06/23 08:08:52;;;;;;;3.50;3.20;;;24.10;60.00;;;;;;897239;155;27541;-75
2023/06/23 08:11:19;;;;;;;3.30;3.08;;;24.10;60.00;;;;;;898336;155;27488;-75
2023/06/23 08:13:45;;;;;;;3.33;3.12;;;24.10;60.00;;;;;;899398;155;27420;-75
2023/06/23 08:16:12;;;;;;;3.72;3.42;;;24.10;59.90;;;;;;899055;155;27416;-75
2023/06/23 08:18:39;;;;;;;3.15;2.90;;;24.10;59.80;;;;;;898672;155;27399;-75
2023/06/23 08:21:05;;;;;;;3.47;3.17;;;24.10;59.80;;;;;;898415;155;27470;-75
2023/06/23 08:23:32;;;;;;;3.80;3.05;;;24.00;59.70;;;;;;898324;155;27321;-75
2023/06/23 08:25:58;;;;;;;3.80;3.27;;;24.00;59.80;;;;;;900232;155;27464;-75
2023/06/23 08:28:25;;;;;;;3.77;3.50;;;24.00;59.80;;;;;;898470;155;27423;-75
2023/06/23 08:30:51;;;;;;;3.87;3.35;;;23.90;59.90;;;;;;898388;155;27368;-75
2023/06/23 08:33:18;;;;;;;3.50;3.25;;;23.90;60.00;;;;;;897567;155;27501;-75
2023/06/23 08:35:45;;;;;;;3.98;3.58;;;23.90;60.00;;;;;;899160;158;27478;-75
2023/06/23 08:38:14;;;;;;;3.40;3.20;;;23.90;60.00;;;;;;899185;155;27958;-75
2023/06/23 08:40:38;;;;;;;3.92;3.62;;;24.00;60.10;;;;;;897681;155;27313;-75
2023/06/23 08:43:04;;;;;;;3.22;3.02;;;24.10;60.00;;;;;;899858;155;27380;-75
2023/06/23 08:45:31;;;;;;;3.83;3.52;;;24.10;60.00;;;;;;899326;155;27459;-75
2023/06/23 08:47:58;;;;;;;3.77;3.10;;;24.20;59.80;;;;;;898399;156;27500;-75
2023/06/23 08:50:24;;;;;;;4.00;3.65;;;24.30;59.60;;;;;;897808;155;27416;-75
2023/06/23 08:52:51;;;;;;;3.72;3.42;;;24.30;59.30;;;;;;899258;155;27369;-75
2023/06/23 08:55:17;;;;;;;3.65;3.35;;;24.30;59.00;;;;;;900266;155;27362;-75
2023/06/23 08:57:44;;;;;;;3.85;3.55;;;24.40;58.90;;;;;;899003;155;27324;-75
2023/06/23 09:00:12;;;;;;;3.60;3.30;;;24.50;58.90;;;;;;901253;155;27484;-75
2023/06/23 09:02:37;;;;;;;3.70;3.40;;;24.50;58.70;;;;;;899820;155;27532;-75
2023/06/23 09:05:04;;;;;;;3.70;3.40;;;24.50;58.40;;;;;;898901;155;27363;-75
2023/06/23 09:07:30;;;;;;;3.10;2.90;;;24.50;58.30;;;;;;899284;155;27306;-75
2023/06/23 09:09:57;;;;;;;3.30;3.00;;;24.50;58.30;;;;;;900008;155;27490;-75
2023/06/23 09:12:24;;;;;;;5.30;3.37;;;24.50;58.30;;;;;;900051;155;27403;-75
2023/06/23 09:14:50;;;;;;;3.50;3.20;;;24.50;58.20;;;;;;899906;155;27312;-75
2023/06/23 09:17:17;;;;;;;3.55;3.05;;;24.50;58.00;;;;;;897549;155;27284;-75
2023/06/23 09:19:45;;;;;;;3.17;2.98;;;24.50;58.10;;;;;;898836;155;27343;-75
2023/06/23 09:22:10;;;;;;;3.20;3.00;;;24.50;58.10;;;;;;898571;155;27424;-75
2023/06/23 09:24:40;;;;;;;3.98;3.65;;;24.50;58.10;;;;;;898852;155;27385;-74
2023/06/23 09:27:06;;;;;;;3.17;2.98;;;24.50;58.00;;;;;;898842;155;27476;-74
2023/06/23 09:29:32;;;;;;;3.98;3.52;;;24.50;57.90;;;;;;899660;155;27390;-74
2023/06/23 09:32:02;;;;;;;4.50;2.95;;;24.50;57.80;;;;;;899620;155;27432;-74
2023/06/23 09:34:26;;;;;;;3.08;2.87;;;24.50;57.70;;;;;;897235;155;27450;-74
2023/06/23 09:36:52;;;;;;;3.87;3.30;;;24.50;57.60;;;;;;900299;155;27363;-74
2023/06/23 09:39:19;;;;;;;3.77;3.47;;;24.50;57.50;;;;;;898397;155;27367;-74
2023/06/23 09:41:46;;;;;;;3.22;2.98;;;24.60;57.40;;;;;;900005;155;27390;-74
2023/06/23 09:44:12;;;;;;;4.35;3.40;;;24.60;57.50;;;;;;899300;155;27468;-74
2023/06/23 09:46:39;;;;;;;3.30;3.10;;;24.60;57.50;;;;;;900218;155;27581;-74
2023/06/23 09:49:05;;;;;;;3.52;3.22;;;24.70;57.50;;;;;;898414;158;27874;-74
2023/06/23 09:51:32;;;;;;;3.37;3.12;;;24.70;57.60;;;;;;901952;155;27380;-74
2023/06/23 09:53:58;;;;;;;3.00;2.80;;;24.70;57.40;;;;;;866963;161;27446;-74
2023/06/23 09:56:25;;;;;;;2.70;2.50;;;24.80;57.30;;;;;;899692;155;27311;-74
2023/06/23 09:58:51;;;;;;;2.92;2.72;;;24.80;57.30;;;;;;898569;158;27385;-74
2023/06/23 10:01:18;;;;;;;2.47;2.27;;;24.90;57.20;;;;;;899862;155;27347;-74
2023/06/23 10:03:50;;;;;;;3.42;2.40;;;24.90;57.00;;;;;;898468;155;27382;-74
2023/06/23 10:06:39;;;;;;;3.10;2.90;;;25.00;56.90;;;;;;899516;155;27502;-74
2023/06/23 10:09:04;;;;;;;2.70;2.50;;;25.00;56.90;;;;;;899872;155;27384;-74
2023/06/23 10:11:34;;;;;;;3.20;2.90;;;25.10;56.60;;;;;;897771;155;27423;-74
2023/06/23 10:14:05;;;;;;;3.08;2.27;;;25.00;56.20;;;;;;900657;155;27414;-74
2023/06/23 10:16:30;;;;;;;2.42;2.22;;;25.00;56.00;;;;;;900453;155;27363;-74
2023/06/23 10:18:56;;;;;;;2.58;2.37;;;25.00;55.80;;;;;;898088;155;27377;-74
2023/06/23 10:21:23;;;;;;;3.37;2.90;;;24.90;56.40;;;;;;898844;155;27437;-74
2023/06/23 10:23:49;;;;;;;2.52;2.33;;;24.90;55.70;;;;;;899177;155;27413;-74
2023/06/23 10:26:16;;;;;;;2.55;2.35;;;24.80;55.70;;;;;;900124;154;27522;-74
2023/06/23 10:28:43;;;;;;;2.92;2.70;;;24.70;55.60;;;;;;898326;155;27357;-74
2023/06/23 10:31:09;;;;;;;2.95;2.40;;;24.70;56.10;;;;;;900008;155;27386;-74
2023/06/23 10:33:36;;;;;;;2.90;2.70;;;24.60;56.50;;;;;;899812;155;27438;-74
2023/06/23 10:36:02;;;;;;;2.77;2.58;;;24.60;56.60;;;;;;896304;155;27390;-74
2023/06/23 10:38:29;;;;;;;2.58;2.37;;;24.50;56.60;;;;;;896660;158;27431;-74
2023/06/23 10:40:55;;;;;;;2.75;2.55;;;24.50;56.60;;;;;;897338;155;27326;-74
2023/06/23 10:43:22;;;;;;;2.55;2.40;;;24.40;56.60;;;;;;899609;155;27409;-74
2023/06/23 10:45:49;;;;;;;2.77;2.35;;;24.40;56.60;;;;;;897839;155;27483;-74
2023/06/23 10:48:15;;;;;;;2.58;2.37;;;24.50;56.70;;;;;;898037;155;27429;-74
2023/06/23 10:50:42;;;;;;;2.40;2.20;;;24.50;56.90;;;;;;898942;155;27711;-74
2023/06/23 10:53:11;;;;;;;2.50;2.30;;;24.60;56.90;;;;;;899872;155;27355;-74
2023/06/23 10:55:41;;;;;;;3.67;2.87;;;24.70;56.70;;;;;;897885;154;27480;-74
2023/06/23 10:58:07;;;;;;;3.05;2.80;;;24.90;56.80;;;;;;898662;155;27497;-74
2023/06/23 11:00:34;;;;;;;2.87;2.60;;;25.00;56.70;;;;;;898086;154;27323;-74
2023/06/23 11:03:00;;;;;;;3.05;2.77;;;25.10;56.60;;;;;;899632;154;27379;-74
2023/06/23 11:05:27;;;;;;;3.98;2.50;;;25.30;56.60;;;;;;899632;155;27441;-74
2023/06/23 11:07:59;;;;;;;2.52;2.33;;;25.40;56.50;;;;;;898554;155;27395;-74
2023/06/23 11:10:26;;;;;;;2.87;2.47;;;25.60;56.90;;;;;;897676;157;27491;-74
2023/06/23 11:12:53;;;;;;;3.00;2.80;;;25.70;56.00;;;;;;897866;155;27335;-74
2023/06/23 11:15:24;;;;;;;2.72;2.52;;;25.80;55.70;;;;;;897536;154;27497;-74
2023/06/23 11:18:00;;;;;;;3.25;2.90;;;25.90;55.40;;;;;;898971;155;27947;-74
2023/06/23 11:20:30;;;;;;;2.90;2.70;;;25.90;55.20;;;;;;900092;155;27359;-74
2023/06/23 11:23:08;;;;;;;2.90;2.70;;;26.00;55.00;;;;;;897712;155;27517;-74
2023/06/23 11:25:49;;;;;;;2.67;2.47;;;26.00;54.90;;;;;;897529;155;27628;-74
2023/06/23 11:28:37;;;;;;;2.95;2.72;;;26.00;54.80;;;;;;896624;155;27349;-74
2023/06/23 11:31:07;;;;;;;2.95;2.75;;;26.00;54.80;;;;;;900578;155;27433;-74
2023/06/23 11:33:33;;;;;;;3.17;2.52;;;26.00;54.90;;;;;;900225;155;27462;-74
2023/06/23 11:35:59;;;;;;;2.87;2.37;;;26.00;54.80;;;;;;898820;155;27356;-74
2023/06/23 11:38:26;;;;;;;2.80;2.55;;;26.10;54.80;;;;;;897867;155;27342;-74
2023/06/23 11:40:52;;;;;;;3.17;2.87;;;26.10;54.70;;;;;;898732;156;27485;-74
2023/06/23 11:43:19;;;;;;;2.98;2.70;;;26.10;54.60;;;;;;900215;155;27391;-74
2023/06/23 11:45:49;;;;;;;2.72;2.52;;;26.10;54.70;;;;;;897434;155;27458;-74
2023/06/23 11:48:15;;;;;;;4.17;2.80;;;26.10;54.70;;;;;;898563;155;27421;-74
2023/06/23 11:50:42;;;;;;;2.70;2.50;;;26.20;54.60;;;;;;898682;155;27372;-74
2023/06/23 11:53:08;;;;;;;2.77;2.58;;;26.30;54.40;;;;;;898764;155;27418;-74
2023/06/23 11:55:35;;;;;;;2.85;2.60;;;26.30;54.40;;;;;;900097;157;27401;-74
2023/06/23 11:58:01;;;;;;;2.80;2.60;;;26.40;54.40;;;;;;896707;155;27450;-74
2023/06/23 12:00:29;;;;;;;3.37;2.70;;;26.50;54.30;;;;;;898521;155;27411;-74
2023/06/23 12:02:54;;;;;;;2.98;2.77;;;26.60;53.90;;;;;;898299;155;27511;-74
2023/06/23 12:05:21;;;;;;;2.98;2.27;;;26.60;53.60;;;;;;897577;155;27962;-74
2023/06/23 12:07:48;;;;;;;2.72;2.52;;;26.70;53.40;;;;;;898757;155;27402;-74
2023/06/23 12:10:15;;;;;;;3.52;2.55;;;26.70;53.30;;;;;;898393;155;27402;-74
2023/06/23 12:12:43;;;;;;;3.10;2.40;;;26.70;53.20;;;;;;897065;155;27508;-74
2023/06/23 12:15:07;;;;;;;2.62;2.42;;;26.80;53.40;;;;;;899186;155;27488;-74
2023/06/23 12:17:34;;;;;;;3.20;2.83;;;26.90;53.40;;;;;;900931;155;27399;-74
2023/06/23 12:20:01;;;;;;;2.17;2.08;;;27.10;53.60;;;;;;896741;155;27373;-74
2023/06/23 12:22:27;;;;;;;2.50;2.30;;;27.20;53.60;;;;;;897821;155;27377;-74
2023/06/23 12:24:54;;;;;;;2.60;2.40;;;27.50;53.80;;;;;;897064;156;27451;-75
2023/06/23 12:27:21;;;;;;;2.60;2.40;;;27.70;53.60;;;;;;900006;155;27459;-75
2023/06/23 12:29:47;;;;;;;2.80;2.60;;;28.00;53.30;;;;;;900064;155;27379;-74
2023/06/23 12:32:14;;;;;;;2.60;2.40;;;28.30;52.90;;;;;;899613;155;27400;-74
2023/06/23 12:34:44;;;;;;;2.45;2.15;;;28.50;52.50;;;;;;899349;155;27421;-74
2023/06/23 12:37:10;;;;;;;2.67;2.02;;;28.70;52.10;;;;;;899272;155;27427;-75
2023/06/23 12:39:36;;;;;;;2.98;2.77;;;28.90;51.50;;;;;;898864;155;27362;-74
2023/06/23 12:42:03;;;;;;;3.08;2.30;;;29.00;51.00;;;;;;899906;155;27895;-74
2023/06/23 12:44:32;;;;;;;2.75;2.55;;;29.10;50.60;;;;;;897629;155;27368;-75
2023/06/23 12:46:59;;;;;;;2.77;2.58;;;29.20;50.30;;;;;;898065;155;27528;-74